createdAt,value
2023-03-21T00:00:34.466Z,11.10
2023-03-21T00:03:01.353Z,11.10
2023-03-21T00:05:28.327Z,11.10
2023-03-21T00:07:55.111Z,11.10
2023-03-21T00:10:37.050Z,11.10
2023-03-21T00:13:06.115Z,11.10
2023-03-21T00:15:42.603Z,11.10
2023-03-21T00:18:12.992Z,11.10
2023-03-21T00:20:39.733Z,11.10
2023-03-21T00:23:06.430Z,11.10
2023-03-21T00:25:33.126Z,11.10
2023-03-21T00:28:07.797Z,11.10
2023-03-21T00:30:35.464Z,11.10
2023-03-21T00:33:08.968Z,11.10
2023-03-21T00:36:06.615Z,11.10
2023-03-21T00:38:34.233Z,11.10
2023-03-21T00:41:10.965Z,11.00
2023-03-21T00:43:41.844Z,11.10
2023-03-21T00:46:08.886Z,11.10
2023-03-21T00:48:36.062Z,11.10
2023-03-21T00:51:03.038Z,11.10
2023-03-21T00:53:31.273Z,11.10
2023-03-21T00:55:58.008Z,11.10
2023-03-21T00:58:25.115Z,11.10
2023-03-21T01:00:51.868Z,11.10
2023-03-21T01:03:24.866Z,11.10
2023-03-21T01:06:05.678Z,11.10
2023-03-21T01:08:50.608Z,11.10
2023-03-21T01:11:19.842Z,11.10
2023-03-21T01:13:53.663Z,11.10
2023-03-21T01:16:22.836Z,11.00
2023-03-21T01:18:49.585Z,11.10
2023-03-21T01:21:16.362Z,11.00
2023-03-21T01:23:43.254Z,11.10
2023-03-21T01:26:10.337Z,11.10
2023-03-21T01:28:37.564Z,11.00
2023-03-21T01:31:05.048Z,11.00
2023-03-21T01:33:32.935Z,11.00
2023-03-21T01:36:10.231Z,11.00
2023-03-21T01:38:39.219Z,11.00
2023-03-21T01:41:17.014Z,11.00
2023-03-21T01:43:45.957Z,11.00
2023-03-21T01:46:49.623Z,11.00
2023-03-21T01:49:29.121Z,11.00
2023-03-21T01:52:11.555Z,11.00
2023-03-21T01:54:39.922Z,11.10
2023-03-21T01:57:09.899Z,11.10
2023-03-21T01:59:44.364Z,11.00
2023-03-21T02:02:12.810Z,11.10
2023-03-21T02:04:39.649Z,11.00
2023-03-21T02:07:10.322Z,11.00
2023-03-21T02:09:37.401Z,11.00
2023-03-21T02:12:04.180Z,11.00
2023-03-21T02:14:31.737Z,10.90
2023-03-21T02:17:14.731Z,10.90
2023-03-21T02:20:11.343Z,10.90
2023-03-21T02:22:54.255Z,10.90
2023-03-21T02:25:36.385Z,10.90
2023-03-21T02:28:11.895Z,10.90
2023-03-21T02:30:51.713Z,10.90
2023-03-21T02:33:40.240Z,10.80
2023-03-21T02:36:26.343Z,10.80
2023-03-21T02:39:08.865Z,10.80
2023-03-21T02:41:52.556Z,10.80
2023-03-21T02:44:44.058Z,10.80
2023-03-21T02:47:18.750Z,10.80
2023-03-21T02:49:51.320Z,10.70
2023-03-21T02:52:37.441Z,10.70
2023-03-21T02:55:06.677Z,10.70
2023-03-21T02:57:42.091Z,10.70
2023-03-21T03:00:16.537Z,10.70
2023-03-21T03:02:43.659Z,10.60
2023-03-21T03:05:24.252Z,10.70
2023-03-21T03:08:01.407Z,10.70
2023-03-21T03:10:54.535Z,10.70
2023-03-21T03:13:50.365Z,10.60
2023-03-21T03:16:39.246Z,10.60
2023-03-21T03:19:09.092Z,10.60
2023-03-21T03:21:48.536Z,10.60
2023-03-21T03:24:20.185Z,10.60
2023-03-21T03:26:48.209Z,10.60
2023-03-21T03:29:16.688Z,10.60
2023-03-21T03:31:49.300Z,10.60
2023-03-21T03:34:20.781Z,10.60
2023-03-21T03:36:56.116Z,10.60
2023-03-21T03:39:32.038Z,10.60
2023-03-21T03:42:27.710Z,10.50
2023-03-21T03:44:55.241Z,10.50
2023-03-21T03:47:57.515Z,10.50
2023-03-21T03:50:24.551Z,10.40
2023-03-21T03:52:57.369Z,10.40
2023-03-21T03:55:27.117Z,10.40
2023-03-21T03:57:54.488Z,10.40
2023-03-21T04:00:21.524Z,10.40
2023-03-21T04:02:48.410Z,10.30
2023-03-21T04:05:15.314Z,10.30
2023-03-21T04:07:42.035Z,10.40
2023-03-21T04:10:09.333Z,10.30
2023-03-21T04:12:36.034Z,10.30
2023-03-21T04:15:09.940Z,10.30
2023-03-21T04:17:39.478Z,10.30
2023-03-21T04:20:11.993Z,10.30
2023-03-21T04:22:44.146Z,10.40
2023-03-21T04:25:10.925Z,10.30
2023-03-21T04:27:37.718Z,10.30
2023-03-21T04:30:06.078Z,10.30
2023-03-21T04:32:34.176Z,10.30
2023-03-21T04:35:01.385Z,10.30
2023-03-21T04:37:33.485Z,10.30
2023-03-21T04:40:00.505Z,10.30
2023-03-21T04:42:27.433Z,10.20
2023-03-21T04:44:54.187Z,10.30
2023-03-21T04:47:22.009Z,10.20
2023-03-21T04:49:48.760Z,10.20
2023-03-21T04:52:15.864Z,10.20
2023-03-21T04:54:42.600Z,10.10
2023-03-21T04:57:09.444Z,10.10
2023-03-21T04:59:36.165Z,10.10
2023-03-21T05:02:02.958Z,10.10
2023-03-21T05:04:31.067Z,10.10
2023-03-21T05:06:57.986Z,10.10
2023-03-21T05:09:24.937Z,10.10
2023-03-21T05:11:51.812Z,10.10
2023-03-21T05:14:21.203Z,10.10
2023-03-21T05:16:56.205Z,10.20
2023-03-21T05:19:25.870Z,10.10
2023-03-21T05:21:52.975Z,10.10
2023-03-21T05:24:21.007Z,10.10
2023-03-21T05:26:50.751Z,10.10
2023-03-21T05:29:18.105Z,10.10
2023-03-21T05:31:45.978Z,10.10
2023-03-21T05:34:16.303Z,10.00
2023-03-21T05:36:43.096Z,10.00
2023-03-21T05:39:09.871Z,10.10
2023-03-21T05:41:36.625Z,9.90
2023-03-21T05:44:03.403Z,10.00
2023-03-21T05:46:30.218Z,9.90
2023-03-21T05:48:57.116Z,9.90
2023-03-21T05:51:23.870Z,10.00
2023-03-21T05:53:51.909Z,9.90
2023-03-21T05:56:18.740Z,9.90
2023-03-21T05:58:45.513Z,9.90
2023-03-21T06:01:12.272Z,9.90
2023-03-21T06:03:38.988Z,9.90
2023-03-21T06:06:06.833Z,9.90
2023-03-21T06:08:33.598Z,9.90
2023-03-21T06:11:00.488Z,10.00
2023-03-21T06:13:27.270Z,9.90
2023-03-21T06:15:54.106Z,9.90
2023-03-21T06:18:21.227Z,10.00
2023-03-21T06:20:47.954Z,10.00
2023-03-21T06:23:15.960Z,10.00
2023-03-21T06:25:42.840Z,10.00
2023-03-21T06:28:09.610Z,10.00
2023-03-21T06:30:36.516Z,10.00
2023-03-21T06:33:03.341Z,10.00
2023-03-21T06:35:30.104Z,10.00
2023-03-21T06:37:58.906Z,10.00
2023-03-21T06:40:25.801Z,10.00
2023-03-21T06:42:52.557Z,10.00
2023-03-21T06:45:19.296Z,10.00
2023-03-21T06:47:46.200Z,10.00
2023-03-21T06:50:13.091Z,10.10
2023-03-21T06:52:39.860Z,10.10
2023-03-21T06:55:06.959Z,10.10
2023-03-21T06:57:33.703Z,10.10
2023-03-21T07:00:00.461Z,10.20
2023-03-21T07:02:27.374Z,10.20
2023-03-21T07:04:54.249Z,10.20
2023-03-21T07:07:24.013Z,10.20
2023-03-21T07:09:50.950Z,10.30
2023-03-21T07:12:17.652Z,10.30
2023-03-21T07:14:44.368Z,10.40
2023-03-21T07:17:11.194Z,10.40
2023-03-21T07:19:38.036Z,10.50
2023-03-21T07:22:05.171Z,10.50
2023-03-21T07:24:32.048Z,10.50
2023-03-21T07:26:58.855Z,10.50
2023-03-21T07:29:25.929Z,10.60
2023-03-21T07:31:52.735Z,10.60
2023-03-21T07:34:19.486Z,10.60
2023-03-21T07:36:46.261Z,10.70
2023-03-21T07:39:12.964Z,10.70
2023-03-21T07:41:39.848Z,10.70
2023-03-21T07:46:38.327Z,10.70
2023-03-21T07:49:06.282Z,10.70
2023-03-21T07:51:35.393Z,10.70
2023-03-21T07:54:02.733Z,10.70
2023-03-21T07:56:29.479Z,10.70
2023-03-21T07:58:56.256Z,10.70
2023-03-21T08:01:23.454Z,10.70
2023-03-21T08:03:51.341Z,10.60
2023-03-21T08:06:18.173Z,10.70
2023-03-21T08:08:44.934Z,10.70
2023-03-21T08:11:11.690Z,10.70
2023-03-21T08:13:38.636Z,10.70
2023-03-21T08:16:05.871Z,10.70
2023-03-21T08:18:32.638Z,10.70
2023-03-21T08:20:59.441Z,10.80
2023-03-21T08:23:27.338Z,10.90
2023-03-21T08:25:54.749Z,11.00
2023-03-21T08:28:21.893Z,11.00
2023-03-21T08:30:48.746Z,11.10
2023-03-21T08:33:15.956Z,11.10
2023-03-21T08:35:43.070Z,11.20
2023-03-21T08:38:10.152Z,11.30
2023-03-21T08:40:36.949Z,11.30
2023-03-21T08:43:03.825Z,11.40
2023-03-21T08:45:30.694Z,11.50
2023-03-21T08:47:57.642Z,11.50
2023-03-21T08:50:26.515Z,11.50
2023-03-21T08:52:53.252Z,11.50
2023-03-21T08:55:22.855Z,11.50
2023-03-21T08:57:49.808Z,11.60
2023-03-21T09:00:17.839Z,11.60
2023-03-21T09:02:45.494Z,11.70
2023-03-21T09:05:12.350Z,11.70
2023-03-21T09:07:39.895Z,11.80
2023-03-21T09:10:20.512Z,11.90
2023-03-21T09:12:50.425Z,12.00
2023-03-21T09:15:18.363Z,12.20
2023-03-21T09:17:48.998Z,12.20
2023-03-21T09:20:20.923Z,12.30
2023-03-21T09:22:48.597Z,12.50
2023-03-21T09:25:16.215Z,12.80
2023-03-21T09:27:45.911Z,13.00
2023-03-21T09:30:17.046Z,13.20
2023-03-21T09:32:48.641Z,13.50
2023-03-21T09:35:17.914Z,13.80
2023-03-21T09:37:48.266Z,13.90
2023-03-21T09:40:29.920Z,13.90
2023-03-21T09:43:06.911Z,13.90
2023-03-21T09:45:43.077Z,13.90
2023-03-21T09:48:17.770Z,13.90
2023-03-21T09:50:45.225Z,13.90
2023-03-21T09:53:23.625Z,13.90
2023-03-21T09:55:54.130Z,13.90
2023-03-21T09:58:42.910Z,13.90
2023-03-21T10:01:27.329Z,13.90
2023-03-21T10:03:55.521Z,13.90
2023-03-21T10:06:28.746Z,14.10
2023-03-21T10:09:07.430Z,14.10
2023-03-21T10:11:42.105Z,14.20
2023-03-21T10:14:19.696Z,14.30
2023-03-21T10:16:52.175Z,14.30
2023-03-21T10:19:19.690Z,14.40
2023-03-21T10:22:00.145Z,14.40
2023-03-21T10:24:27.642Z,14.40
2023-03-21T10:26:54.704Z,14.40
2023-03-21T10:29:24.115Z,14.30
2023-03-21T10:31:51.229Z,14.30
2023-03-21T10:34:31.293Z,14.30
2023-03-21T10:36:58.761Z,14.20
2023-03-21T10:39:28.399Z,14.50
2023-03-21T10:41:55.460Z,14.70
2023-03-21T10:44:22.281Z,14.80
2023-03-21T10:46:57.615Z,14.70
2023-03-21T10:49:26.499Z,14.70
2023-03-21T10:51:58.023Z,14.60
2023-03-21T10:54:28.346Z,14.50
2023-03-21T10:56:57.579Z,14.30
2023-03-21T10:59:25.101Z,14.30
2023-03-21T11:01:52.618Z,14.20
2023-03-21T11:04:27.064Z,14.10
2023-03-21T11:07:03.107Z,14.10
2023-03-21T11:09:54.203Z,14.20
2023-03-21T11:12:31.062Z,14.30
2023-03-21T11:14:57.882Z,14.50
2023-03-21T11:17:32.341Z,14.60
2023-03-21T11:20:00.207Z,14.70
2023-03-21T11:22:30.933Z,14.80
2023-03-21T11:25:00.439Z,14.90
2023-03-21T11:27:30.676Z,15.00
2023-03-21T11:29:59.721Z,15.10
2023-03-21T11:32:46.749Z,15.10
2023-03-21T11:35:20.897Z,15.10
2023-03-21T11:37:56.381Z,15.30
2023-03-21T11:40:25.691Z,15.50
2023-03-21T11:42:53.226Z,15.60
2023-03-21T11:45:24.006Z,15.70
2023-03-21T11:47:52.439Z,15.80
2023-03-21T11:50:19.401Z,15.80
2023-03-21T11:53:27.204Z,15.70
2023-03-21T11:55:59.911Z,15.60
2023-03-21T11:59:16.042Z,15.50
2023-03-21T12:01:58.160Z,15.40
2023-03-21T12:04:34.886Z,15.30
2023-03-21T12:07:22.867Z,15.20
2023-03-21T12:10:27.095Z,15.00
2023-03-21T12:13:26.837Z,15.00
2023-03-21T12:16:22.519Z,14.90
2023-03-21T12:19:36.739Z,15.00
2023-03-21T12:22:25.380Z,14.90
2023-03-21T12:24:56.571Z,14.90
2023-03-21T12:27:53.227Z,15.00
2023-03-21T12:30:46.630Z,15.10
2023-03-21T12:33:28.661Z,15.10
2023-03-21T12:36:06.016Z,15.10
2023-03-21T12:38:43.662Z,15.10
2023-03-21T12:41:27.467Z,15.00
2023-03-21T12:44:04.087Z,15.00
2023-03-21T12:46:42.941Z,15.10
2023-03-21T12:49:20.689Z,15.00
2023-03-21T12:51:49.265Z,14.90
2023-03-21T12:54:32.115Z,14.90
2023-03-21T12:57:11.695Z,14.90
2023-03-21T12:59:41.402Z,14.80
2023-03-21T13:02:30.644Z,14.80
2023-03-21T13:05:00.837Z,14.80
2023-03-21T13:07:28.473Z,14.80
2023-03-21T13:09:56.945Z,14.80
2023-03-21T13:12:36.067Z,14.80
2023-03-21T13:15:33.630Z,14.80
2023-03-21T13:18:12.369Z,14.80
2023-03-21T13:20:53.571Z,14.80
2023-03-21T13:23:22.577Z,14.80
2023-03-21T13:25:51.120Z,14.80
2023-03-21T13:28:31.568Z,14.90
2023-03-21T13:31:21.194Z,14.90
2023-03-21T13:33:52.439Z,14.90
2023-03-21T13:36:26.572Z,14.90
2023-03-21T13:38:54.849Z,14.90
2023-03-21T13:41:28.521Z,14.90
2023-03-21T13:44:04.396Z,14.90
2023-03-21T13:46:38.149Z,14.80
2023-03-21T13:49:15.605Z,14.70
2023-03-21T13:51:44.625Z,14.60
2023-03-21T13:54:18.291Z,14.60
2023-03-21T13:56:45.861Z,14.70
2023-03-21T13:59:13.810Z,14.70
2023-03-21T14:01:41.812Z,14.80
2023-03-21T14:04:16.820Z,14.90
2023-03-21T14:06:45.105Z,15.00
2023-03-21T14:09:25.904Z,15.00
2023-03-21T14:11:54.645Z,15.10
2023-03-21T14:14:24.999Z,15.10
2023-03-21T14:16:53.640Z,15.10
2023-03-21T14:19:20.429Z,15.10
2023-03-21T14:21:50.328Z,15.00
2023-03-21T14:24:17.696Z,15.00
2023-03-21T14:26:47.290Z,14.90
2023-03-21T14:29:26.145Z,14.90
2023-03-21T14:31:53.868Z,15.00
2023-03-21T14:34:20.888Z,15.10
2023-03-21T14:36:56.985Z,15.20
2023-03-21T14:39:30.817Z,15.10
2023-03-21T14:42:05.496Z,15.10
2023-03-21T14:44:54.813Z,15.00
2023-03-21T14:47:24.481Z,15.00
2023-03-21T14:49:51.349Z,15.10
2023-03-21T14:52:23.010Z,15.10
2023-03-21T14:54:49.874Z,15.20
2023-03-21T14:57:25.138Z,15.20
2023-03-21T14:59:53.308Z,15.30
2023-03-21T15:02:23.782Z,15.20
2023-03-21T15:04:56.455Z,15.10
2023-03-21T15:07:32.998Z,15.00
2023-03-21T15:10:03.699Z,15.10
2023-03-21T15:12:36.520Z,15.20
2023-03-21T15:15:03.766Z,15.30
2023-03-21T15:17:31.191Z,15.20
2023-03-21T15:19:58.003Z,15.20
2023-03-21T15:22:33.634Z,15.20
2023-03-21T15:25:02.986Z,15.30
2023-03-21T15:27:30.964Z,15.30
2023-03-21T15:29:57.884Z,15.20
2023-03-21T15:32:28.187Z,15.20
2023-03-21T15:34:56.487Z,15.10
2023-03-21T15:37:27.534Z,15.00
2023-03-21T15:39:55.506Z,14.90
2023-03-21T15:42:30.574Z,14.80
2023-03-21T15:44:58.559Z,14.70
2023-03-21T15:48:07.997Z,14.70
2023-03-21T15:50:39.214Z,14.60
2023-03-21T15:53:11.895Z,14.50
2023-03-21T15:55:52.016Z,14.50
2023-03-21T15:58:24.021Z,14.40
2023-03-21T16:00:57.581Z,14.40
2023-03-21T16:03:48.165Z,14.40
2023-03-21T16:06:15.528Z,14.30
2023-03-21T16:08:45.983Z,14.20
2023-03-21T16:11:28.425Z,14.10
2023-03-21T16:13:55.965Z,14.10
2023-03-21T16:16:27.086Z,14.10
2023-03-21T16:18:54.429Z,14.10
2023-03-21T16:21:22.964Z,14.10
2023-03-21T16:23:49.821Z,14.10
2023-03-21T16:26:17.691Z,14.10
2023-03-21T16:28:44.980Z,14.10
2023-03-21T16:31:21.952Z,14.10
2023-03-21T16:33:48.948Z,14.00
2023-03-21T16:36:18.543Z,14.00
2023-03-21T16:38:46.508Z,14.00
2023-03-21T16:41:16.946Z,14.00
2023-03-21T16:43:44.096Z,13.90
2023-03-21T16:46:18.610Z,13.90
2023-03-21T16:48:47.282Z,14.00
2023-03-21T16:51:19.228Z,14.00
2023-03-21T16:53:46.235Z,14.00
2023-03-21T16:56:21.277Z,13.90
2023-03-21T16:58:48.008Z,13.90
2023-03-21T17:01:15.878Z,13.80
2023-03-21T17:03:43.190Z,13.70
2023-03-21T17:06:21.353Z,13.70
2023-03-21T17:08:48.314Z,13.60
2023-03-21T17:11:16.842Z,13.60
2023-03-21T17:13:44.027Z,13.50
2023-03-21T17:16:15.052Z,13.40
2023-03-21T17:18:41.948Z,13.40
2023-03-21T17:21:16.481Z,13.30
2023-03-21T17:23:43.389Z,13.30
2023-03-21T17:26:10.823Z,13.30
2023-03-21T17:28:38.217Z,13.30
2023-03-21T17:31:16.012Z,13.20
2023-03-21T17:33:43.199Z,13.20
2023-03-21T17:36:16.534Z,13.20
2023-03-21T17:38:43.835Z,13.10
2023-03-21T17:41:17.415Z,13.10
2023-03-21T17:43:44.331Z,13.00
2023-03-21T17:46:15.809Z,13.00
2023-03-21T17:48:43.138Z,12.90
2023-03-21T17:51:14.781Z,12.80
2023-03-21T17:53:42.713Z,12.80
2023-03-21T17:56:21.891Z,12.70
2023-03-21T17:58:48.832Z,12.60
2023-03-21T18:01:15.617Z,12.60
2023-03-21T18:03:42.388Z,12.60
2023-03-21T18:06:20.458Z,12.50
2023-03-21T18:08:47.558Z,12.50
2023-03-21T18:11:14.716Z,12.40
2023-03-21T18:13:42.208Z,12.30
2023-03-21T18:16:12.188Z,12.30
2023-03-21T18:18:39.302Z,12.20
2023-03-21T18:21:06.554Z,12.20
2023-03-21T18:23:33.480Z,12.20
2023-03-21T18:26:00.342Z,12.10
2023-03-21T18:28:27.083Z,12.10
2023-03-21T18:31:08.507Z,12.00
2023-03-21T18:33:38.053Z,12.00
2023-03-21T18:36:07.687Z,11.90
2023-03-21T18:38:35.584Z,11.90
2023-03-21T18:41:02.358Z,11.80
2023-03-21T18:46:16.443Z,11.80
2023-03-21T18:48:43.465Z,11.70
2023-03-21T18:51:10.310Z,11.70
2023-03-21T18:53:37.108Z,11.70
2023-03-21T18:56:09.513Z,11.70
2023-03-21T18:58:37.290Z,11.60
2023-03-21T19:01:05.188Z,11.60
2023-03-21T19:03:36.965Z,11.60
2023-03-21T19:06:05.088Z,11.50
2023-03-21T19:08:34.018Z,11.50
2023-03-21T19:11:04.405Z,11.50
2023-03-21T19:13:33.331Z,11.50
2023-03-21T19:16:02.474Z,11.50
2023-03-21T19:18:49.958Z,11.40
2023-03-21T19:21:17.390Z,11.40
2023-03-21T19:24:20.988Z,11.40
2023-03-21T19:26:30.980Z,11.40
2023-03-21T19:28:57.718Z,11.40
2023-03-21T19:31:24.771Z,11.30
2023-03-21T19:33:51.830Z,11.30
2023-03-21T19:36:22.913Z,11.30
2023-03-21T19:38:50.458Z,11.20
2023-03-21T19:41:17.928Z,11.20
2023-03-21T19:43:53.783Z,11.20
2023-03-21T19:46:24.840Z,11.20
2023-03-21T19:48:56.162Z,11.10
2023-03-21T19:51:28.613Z,11.10
2023-03-21T19:53:56.464Z,11.10
2023-03-21T19:56:26.730Z,11.20
2023-03-21T19:58:55.016Z,11.10
2023-03-21T20:01:21.998Z,11.20
2023-03-21T20:03:49.184Z,11.10
2023-03-21T20:06:16.685Z,11.10
2023-03-21T20:09:23.962Z,11.10
2023-03-21T20:11:30.353Z,11.10
2023-03-21T20:13:58.435Z,11.00
2023-03-21T20:16:32.674Z,11.00
2023-03-21T20:19:00.806Z,11.00
2023-03-21T20:21:33.842Z,11.00
2023-03-21T20:24:05.321Z,10.90
2023-03-21T20:26:33.033Z,10.90
2023-03-21T20:29:25.168Z,10.90
2023-03-21T20:31:46.548Z,10.80
2023-03-21T20:34:13.430Z,10.80
2023-03-21T20:36:42.884Z,10.80
2023-03-21T20:39:09.976Z,10.90
2023-03-21T20:41:36.870Z,10.80
2023-03-21T20:46:50.785Z,10.80
2023-03-21T20:49:19.696Z,10.80
2023-03-21T20:52:47.825Z,10.80
2023-03-21T20:54:34.773Z,10.80
2023-03-21T20:57:02.552Z,10.80
2023-03-21T20:59:29.932Z,10.80
2023-03-21T21:01:57.476Z,10.70
2023-03-21T21:04:46.955Z,10.70
2023-03-21T21:07:15.952Z,10.70
2023-03-21T21:09:46.281Z,10.70
2023-03-21T21:12:14.502Z,10.80
2023-03-21T21:14:41.790Z,10.70
2023-03-21T21:17:26.680Z,10.70
2023-03-21T21:19:54.441Z,10.70
2023-03-21T21:22:21.278Z,10.80
2023-03-21T21:24:48.778Z,10.80
2023-03-21T21:27:16.070Z,10.80
2023-03-21T21:29:46.831Z,10.80
2023-03-21T21:32:16.972Z,10.80
2023-03-21T21:34:43.869Z,10.80
2023-03-21T21:37:10.708Z,10.90
2023-03-21T21:39:38.656Z,10.90
2023-03-21T21:42:05.482Z,10.90
2023-03-21T21:44:32.320Z,10.90
2023-03-21T21:46:59.187Z,10.90
2023-03-21T21:49:26.839Z,10.90
2023-03-21T21:51:53.659Z,11.00
2023-03-21T21:54:20.461Z,11.00
2023-03-21T21:56:54.217Z,11.00
2023-03-21T21:59:22.150Z,11.00
2023-03-21T22:01:51.302Z,11.00
2023-03-21T22:04:18.908Z,11.00
2023-03-21T22:06:47.566Z,11.00
2023-03-21T22:09:15.695Z,11.00
2023-03-21T22:11:42.600Z,11.00
2023-03-21T22:14:09.428Z,11.10
2023-03-21T22:16:36.376Z,11.00
2023-03-21T22:19:03.271Z,11.10
2023-03-21T22:21:30.026Z,11.10
2023-03-21T22:23:56.802Z,11.10
2023-03-21T22:26:23.683Z,11.10
2023-03-21T22:28:50.751Z,11.10
2023-03-21T22:31:17.580Z,11.10
2023-03-21T22:33:44.686Z,11.10
2023-03-21T22:36:11.626Z,11.10
2023-03-21T22:38:38.462Z,11.10
2023-03-21T22:41:05.759Z,11.20
2023-03-21T22:43:34.364Z,11.10
2023-03-21T22:46:05.048Z,11.20
2023-03-21T22:48:31.985Z,11.20
2023-03-21T22:50:58.968Z,11.20
2023-03-21T22:53:25.970Z,11.20
2023-03-21T22:55:52.840Z,11.30
2023-03-21T22:58:19.585Z,11.20
2023-03-21T23:00:47.223Z,11.30
2023-03-21T23:03:14.666Z,11.30
2023-03-21T23:05:41.694Z,11.30
2023-03-21T23:08:08.625Z,11.30
2023-03-21T23:10:40.455Z,11.30
2023-03-21T23:13:07.376Z,11.30
2023-03-21T23:15:34.218Z,11.40
2023-03-21T23:18:01.058Z,11.40
2023-03-21T23:20:27.906Z,11.40
2023-03-21T23:22:55.317Z,11.40
2023-03-21T23:25:22.313Z,11.40
2023-03-21T23:27:49.068Z,11.40
2023-03-21T23:30:15.888Z,11.40
2023-03-21T23:32:42.702Z,11.40
2023-03-21T23:35:09.978Z,11.40
2023-03-21T23:37:36.795Z,11.40
2023-03-21T23:40:06.368Z,11.40
2023-03-21T23:42:34.304Z,11.40
2023-03-21T23:45:01.188Z,11.40
2023-03-21T23:47:28.141Z,11.40
2023-03-21T23:49:54.970Z,11.40
2023-03-21T23:52:21.772Z,11.40
2023-03-21T23:54:48.547Z,11.50
2023-03-21T23:57:17.198Z,11.50
2023-03-21T23:59:44.158Z,11.50
